Time;durP1;ratioP1;P1;durP2;ratioP2;P2;SDS_P1;SDS_P2;PMS_P1;PMS_P2;Temp;Humidity;BMP_temperature;BMP_pressure;BME280_temperature;BME280_humidity;BME280_pressure;Samples;Min_cycle;Max_cycle;Signal;HPM_P1;HPM_P2
2023/09/29 00:01:39;;;;;;;0.40;0.20;;;;;;;16.49;100.00;100404.81;5012407;28;20476;-51
2023/09/29 00:04:06;;;;;;;0.40;0.20;;;;;;;16.31;100.00;100408.44;5012583;28;20483;-50
2023/09/29 00:06:33;;;;;;;0.40;0.20;;;;;;;16.36;100.00;100390.28;5016003;28;20487;-51
2023/09/29 00:09:00;;;;;;;0.40;0.20;;;;;;;16.35;100.00;100407.31;5000710;28;20445;-50
2023/09/29 00:11:30;;;;;;;0.40;0.20;;;;;;;16.28;100.00;100396.00;5011711;28;20448;-51
2023/09/29 00:13:57;;;;;;;0.40;0.20;;;;;;;16.24;100.00;100393.56;5015446;28;20834;-51
2023/09/29 00:16:24;;;;;;;0.40;0.20;;;;;;;16.21;100.00;100394.59;5012153;28;20482;-51
2023/09/29 00:18:50;;;;;;;0.40;0.20;;;;;;;16.18;100.00;100397.44;5006995;28;20485;-51
2023/09/29 00:21:17;;;;;;;0.40;0.20;;;;;;;16.24;100.00;100381.03;5012476;28;20452;-51
2023/09/29 00:23:44;;;;;;;3.50;2.63;;;;;;;16.24;100.00;100389.06;5016020;28;20452;-51
2023/09/29 00:26:10;;;;;;;0.40;0.20;;;;;;;16.41;100.00;100380.16;5015580;28;20464;-51
2023/09/29 00:28:37;;;;;;;0.40;0.20;;;;;;;16.38;100.00;100377.66;5006450;28;20795;-51
2023/09/29 00:31:05;;;;;;;0.40;0.20;;;;;;;16.46;100.00;100374.59;4999534;28;20504;-52
2023/09/29 00:33:33;;;;;;;0.40;0.20;;;;;;;16.52;100.00;100372.44;5015932;28;20507;-50
2023/09/29 00:35:59;;;;;;;0.40;0.20;;;;;;;16.54;100.00;100375.91;5015645;28;20465;-51
2023/09/29 00:38:26;;;;;;;0.40;0.20;;;;;;;16.54;100.00;100388.44;5012550;28;20492;-52
2023/09/29 00:40:53;;;;;;;0.40;0.20;;;;;;;16.58;100.00;100387.34;5016878;28;20463;-51
2023/09/29 00:43:19;;;;;;;0.40;0.27;;;;;;;16.56;100.00;100392.78;5017792;28;20472;-52
2023/09/29 00:45:47;;;;;;;0.40;0.20;;;;;;;16.58;100.00;100403.44;5004399;28;20458;-52
2023/09/29 00:48:17;;;;;;;0.40;0.20;;;;;;;16.61;100.00;100408.69;5017049;28;20602;-52
2023/09/29 00:50:45;;;;;;;0.40;0.20;;;;;;;16.44;100.00;100404.16;5017053;28;20448;-52
2023/09/29 00:53:14;;;;;;;1.43;1.30;;;;;;;16.34;100.00;100416.31;5017336;28;20778;-51
2023/09/29 00:55:42;;;;;;;0.40;0.20;;;;;;;16.28;100.00;100413.91;5017541;28;20477;-52
2023/09/29 00:58:12;;;;;;;0.40;0.20;;;;;;;16.34;100.00;100412.75;5017242;28;20452;-52
2023/09/29 01:00:40;;;;;;;0.40;0.20;;;;;;;16.23;100.00;100419.53;5017247;28;20445;-52
2023/09/29 01:03:13;;;;;;;0.40;0.20;;;;;;;16.23;100.00;100424.88;5017083;28;20540;-52
2023/09/29 01:05:42;;;;;;;0.40;0.20;;;;;;;16.16;100.00;100423.44;5017279;28;20614;-52
2023/09/29 01:08:17;;;;;;;0.40;0.20;;;;;;;16.16;100.00;100412.72;5006463;28;20567;-51
2023/09/29 01:10:44;;;;;;;0.40;0.20;;;;;;;16.12;100.00;100416.50;4993182;28;20443;-51
2023/09/29 01:13:12;;;;;;;0.40;0.20;;;;;;;16.13;100.00;100409.31;5015004;28;20507;-51
2023/09/29 01:15:39;;;;;;;0.40;0.20;;;;;;;16.19;100.00;100417.94;5008844;28;20475;-51
2023/09/29 01:18:07;;;;;;;0.40;0.20;;;;;;;16.19;100.00;100411.72;5014922;28;20460;-52
2023/09/29 01:20:34;;;;;;;0.40;0.20;;;;;;;16.14;100.00;100411.06;5015130;28;20528;-51
2023/09/29 01:23:03;;;;;;;0.40;0.20;;;;;;;16.02;100.00;100411.66;5015010;28;20452;-51
2023/09/29 01:25:30;;;;;;;0.40;0.20;;;;;;;16.07;100.00;100396.22;5014847;28;21016;-52
2023/09/29 01:27:57;;;;;;;0.40;0.20;;;;;;;15.66;100.00;100389.25;5014718;28;20468;-50
2023/09/29 01:30:25;;;;;;;0.40;0.20;;;;;;;15.66;100.00;100378.53;5004661;28;20445;-51
2023/09/29 01:32:53;;;;;;;0.40;0.20;;;;;;;15.76;100.00;100378.97;5011993;28;20453;-51
2023/09/29 01:35:27;;;;;;;0.40;0.20;;;;;;;15.69;100.00;100372.16;5015093;28;20453;-52
2023/09/29 01:37:58;;;;;;;0.40;0.20;;;;;;;15.77;100.00;100366.44;5011144;28;21018;-51
2023/09/29 01:40:26;;;;;;;0.40;0.20;;;;;;;15.79;100.00;100369.91;5014713;28;20500;-51
2023/09/29 01:42:53;;;;;;;0.47;0.30;;;;;;;16.04;100.00;100367.75;5014680;28;20563;-51
2023/09/29 01:45:21;;;;;;;0.40;0.20;;;;;;;16.09;100.00;100372.88;5002072;28;20548;-52
2023/09/29 01:47:48;;;;;;;0.40;0.20;;;;;;;16.11;100.00;100371.84;5014292;28;20483;-51
2023/09/29 01:50:17;;;;;;;0.40;0.20;;;;;;;16.25;100.00;100353.25;5014622;28;20444;-50
2023/09/29 01:52:45;;;;;;;0.40;0.20;;;;;;;16.19;100.00;100353.56;5014640;28;20487;-51
2023/09/29 01:55:16;;;;;;;0.40;0.20;;;;;;;16.31;100.00;100360.13;5014245;28;20898;-51
2023/09/29 01:57:43;;;;;;;0.40;0.20;;;;;;;16.52;100.00;100363.50;5014159;28;20473;-51
2023/09/29 02:00:20;;;;;;;0.40;0.20;;;;;;;16.58;100.00;100361.41;5014364;28;20505;-51
2023/09/29 02:02:47;;;;;;;0.40;0.20;;;;;;;16.65;100.00;100367.28;5014554;28;20456;-51
2023/09/29 02:05:18;;;;;;;0.40;0.20;;;;;;;16.67;100.00;100359.16;5013996;28;20449;-51
2023/09/29 02:07:45;;;;;;;0.40;0.20;;;;;;;16.70;100.00;100369.75;5008547;28;20477;-51
2023/09/29 02:10:12;;;;;;;0.40;0.20;;;;;;;16.74;100.00;100369.53;4999619;28;20449;-52
2023/09/29 02:12:49;;;;;;;0.40;0.20;;;;;;;16.77;100.00;100363.13;5014246;28;20455;-50
2023/09/29 02:15:17;;;;;;;0.40;0.20;;;;;;;16.84;100.00;100376.13;5006946;28;21008;-51
2023/09/29 02:17:44;;;;;;;0.40;0.20;;;;;;;17.04;100.00;100384.97;5013916;28;20908;-51
2023/09/29 02:20:15;;;;;;;0.40;0.20;;;;;;;17.13;100.00;100384.44;5013729;28;20584;-51
2023/09/29 02:22:42;;;;;;;0.40;0.20;;;;;;;17.00;100.00;100386.97;5013811;28;20453;-51
2023/09/29 02:25:17;;;;;;;0.40;0.20;;;;;;;17.06;100.00;100392.00;5013695;28;20519;-51
2023/09/29 02:27:44;;;;;;;0.50;0.40;;;;;;;17.07;100.00;100396.41;5013046;28;20468;-51
2023/09/29 02:30:11;;;;;;;0.40;0.20;;;;;;;16.97;100.00;100387.09;5005554;28;20438;-51
2023/09/29 02:32:39;;;;;;;0.40;0.20;;;;;;;16.92;100.00;100381.13;5009190;28;20490;-51
2023/09/29 02:35:06;;;;;;;0.40;0.20;;;;;;;16.89;100.00;100378.59;5013732;28;20588;-51
2023/09/29 02:37:33;;;;;;;0.40;0.20;;;;;;;16.81;100.00;100379.00;5010084;28;20981;-51
2023/09/29 02:39:59;;;;;;;0.40;0.20;;;;;;;16.90;100.00;100387.53;5013463;28;21142;-51
2023/09/29 02:42:26;;;;;;;0.40;0.20;;;;;;;16.94;100.00;100379.22;5013445;28;20543;-51
2023/09/29 02:44:52;;;;;;;0.70;0.70;;;;;;;16.92;100.00;100373.06;5004894;28;20457;-51
2023/09/29 02:47:19;;;;;;;0.40;0.20;;;;;;;16.92;100.00;100377.56;5009472;28;20488;-51
2023/09/29 02:49:45;;;;;;;0.40;0.20;;;;;;;16.93;100.00;100384.66;5013272;28;20537;-51
2023/09/29 02:52:12;;;;;;;0.40;0.20;;;;;;;16.92;100.00;100378.44;5013406;28;20452;-51
2023/09/29 02:54:39;;;;;;;0.40;0.20;;;;;;;16.85;100.00;100372.50;5013382;28;20453;-51
2023/09/29 02:57:07;;;;;;;0.40;0.20;;;;;;;16.80;100.00;100373.72;5013369;28;21020;-51
2023/09/29 02:59:34;;;;;;;0.40;0.20;;;;;;;16.73;100.00;100370.50;5013663;28;20499;-52
2023/09/29 03:02:03;;;;;;;0.40;0.20;;;;;;;16.63;100.00;100366.50;5012993;28;20459;-52
2023/09/29 03:04:32;;;;;;;0.40;0.20;;;;;;;16.72;100.00;100367.88;5012977;28;20968;-52
2023/09/29 03:06:59;;;;;;;0.40;0.20;;;;;;;16.69;100.00;100357.28;5013129;28;20484;-52
2023/09/29 03:09:28;;;;;;;0.40;0.20;;;;;;;16.68;100.00;100353.75;4993799;28;20450;-52
2023/09/29 03:11:55;;;;;;;0.40;0.20;;;;;;;16.44;100.00;100349.63;4993908;28;20477;-52
2023/09/29 03:14:22;;;;;;;0.43;0.20;;;;;;;16.48;100.00;100345.84;5008403;28;20450;-52
2023/09/29 03:16:48;;;;;;;0.40;0.20;;;;;;;16.45;100.00;100351.38;5010805;28;20504;-51
2023/09/29 03:19:15;;;;;;;0.40;0.20;;;;;;;16.46;100.00;100353.97;5013036;28;20575;-52
2023/09/29 03:21:42;;;;;;;0.40;0.20;;;;;;;16.62;100.00;100350.50;5012946;28;20476;-52
2023/09/29 03:24:09;;;;;;;0.40;0.20;;;;;;;16.74;100.00;100357.94;5013019;28;20427;-52
2023/09/29 03:26:36;;;;;;;0.40;0.20;;;;;;;16.89;100.00;100359.81;5012652;28;20468;-52
2023/09/29 03:29:04;;;;;;;0.40;0.20;;;;;;;16.99;100.00;100354.78;5012779;28;20540;-52
2023/09/29 03:31:30;;;;;;;0.40;0.20;;;;;;;16.92;100.00;100359.63;4999285;28;20453;-52
2023/09/29 03:33:56;;;;;;;0.40;0.20;;;;;;;16.90;100.00;100357.97;5012921;28;20490;-52
2023/09/29 03:36:23;;;;;;;0.40;0.20;;;;;;;16.94;100.00;100363.09;5012640;28;20479;-52
2023/09/29 03:38:50;;;;;;;0.40;0.20;;;;;;;17.02;100.00;100354.66;5009316;28;20467;-52
2023/09/29 03:41:16;;;;;;;0.40;0.20;;;;;;;16.96;100.00;100361.19;5012475;28;20501;-52
2023/09/29 03:43:43;;;;;;;0.40;0.20;;;;;;;16.98;100.00;100359.28;5012509;28;20895;-52
2023/09/29 03:46:19;;;;;;;0.40;0.20;;;;;;;16.87;100.00;100362.56;4999458;28;20584;-52
2023/09/29 03:48:47;;;;;;;0.40;0.20;;;;;;;16.90;100.00;100364.22;5012477;28;20456;-52
2023/09/29 03:51:31;;;;;;;0.40;0.20;;;;;;;16.96;100.00;100368.38;5012589;28;20444;-52
2023/09/29 03:53:57;;;;;;;0.40;0.20;;;;;;;17.03;100.00;100373.34;5012468;28;20449;-52
2023/09/29 03:56:24;;;;;;;0.40;0.20;;;;;;;17.15;100.00;100379.88;5012428;28;20505;-52
2023/09/29 03:58:53;;;;;;;0.40;0.20;;;;;;;17.07;100.00;100380.28;5012226;28;20522;-52
2023/09/29 04:01:21;;;;;;;0.40;0.20;;;;;;;17.03;100.00;100376.03;5012546;28;20527;-52
2023/09/29 04:03:48;;;;;;;0.40;0.20;;;;;;;17.05;100.00;100378.63;5012158;28;20972;-52
2023/09/29 04:06:15;;;;;;;0.40;0.30;;;;;;;17.12;100.00;100378.22;5012146;28;20511;-52
2023/09/29 04:08:42;;;;;;;0.40;0.20;;;;;;;17.37;100.00;100372.38;4999052;28;20504;-52
2023/09/29 04:11:08;;;;;;;0.40;0.20;;;;;;;17.57;100.00;100381.16;5004208;28;20496;-53
2023/09/29 04:13:35;;;;;;;0.40;0.20;;;;;;;17.46;100.00;100379.94;5012304;28;20534;-52
2023/09/29 04:16:05;;;;;;;0.40;0.20;;;;;;;17.31;100.00;100379.91;5005992;28;20548;-52
2023/09/29 04:18:32;;;;;;;0.40;0.20;;;;;;;17.30;100.00;100386.25;5012217;28;20445;-52
2023/09/29 04:21:01;;;;;;;0.40;0.20;;;;;;;17.13;100.00;100384.44;5012194;28;20488;-52
2023/09/29 04:23:28;;;;;;;0.40;0.20;;;;;;;16.93;100.00;100376.59;4986198;28;20457;-52
2023/09/29 04:25:55;;;;;;;0.40;0.20;;;;;;;16.83;100.00;100381.59;5011791;28;20427;-51
2023/09/29 04:28:21;;;;;;;0.40;0.20;;;;;;;17.03;100.00;100377.88;5012249;28;20905;-52
2023/09/29 04:30:48;;;;;;;0.40;0.20;;;;;;;16.95;100.00;100378.25;5012332;28;20957;-51
2023/09/29 04:33:14;;;;;;;0.40;0.20;;;;;;;16.78;100.00;100375.59;5012226;28;20459;-52
2023/09/29 04:35:41;;;;;;;0.40;0.20;;;;;;;16.68;100.00;100375.22;5011875;28;20975;-52
2023/09/29 04:38:10;;;;;;;0.40;0.20;;;;;;;16.61;100.00;100368.41;5009260;28;20981;-52
2023/09/29 04:40:37;;;;;;;0.40;0.20;;;;;;;16.66;100.00;100377.09;5011842;28;20923;-52
2023/09/29 04:43:05;;;;;;;0.40;0.20;;;;;;;16.64;100.00;100373.63;5012237;28;20770;-52
2023/09/29 04:45:33;;;;;;;0.40;0.20;;;;;;;16.72;100.00;100373.22;4999869;28;20962;-52
2023/09/29 04:48:01;;;;;;;0.40;0.20;;;;;;;16.57;100.00;100375.72;5011959;28;20526;-52
2023/09/29 04:50:29;;;;;;;0.40;0.20;;;;;;;16.59;100.00;100373.00;5012057;28;21029;-52
2023/09/29 04:52:56;;;;;;;0.40;0.20;;;;;;;16.70;100.00;100370.63;5015486;28;20448;-52
2023/09/29 04:55:22;;;;;;;0.40;0.30;;;;;;;16.83;100.00;100370.84;5015625;28;20480;-52
2023/09/29 04:57:52;;;;;;;0.40;0.20;;;;;;;16.88;100.00;100374.19;5015552;28;20864;-52
2023/09/29 05:00:18;;;;;;;0.40;0.20;;;;;;;16.93;100.00;100371.25;5015319;28;20488;-52
2023/09/29 05:02:45;;;;;;;0.40;0.20;;;;;;;16.88;100.00;100367.00;5015339;28;20453;-52
2023/09/29 05:05:12;;;;;;;0.40;0.20;;;;;;;16.86;100.00;100354.59;5015140;28;20448;-52
2023/09/29 05:07:39;;;;;;;0.40;0.20;;;;;;;16.71;100.00;100350.88;5010292;28;21020;-52
2023/09/29 05:10:06;;;;;;;0.40;0.20;;;;;;;16.82;100.00;100353.00;4999322;28;20476;-52
2023/09/29 05:12:33;;;;;;;0.40;0.20;;;;;;;16.92;100.00;100359.63;5015122;28;20861;-52
2023/09/29 05:15:00;;;;;;;0.40;0.20;;;;;;;17.03;100.00;100364.44;5008853;28;20538;-51
2023/09/29 05:17:26;;;;;;;0.40;0.20;;;;;;;17.05;100.00;100367.91;4990099;28;20641;-52
2023/09/29 05:20:14;;;;;;;0.40;0.20;;;;;;;17.09;100.00;100366.78;5014820;28;20484;-52
2023/09/29 05:22:40;;;;;;;0.40;0.20;;;;;;;16.98;100.00;100359.28;5014794;28;20449;-51
2023/09/29 05:25:07;;;;;;;0.40;0.20;;;;;;;16.85;100.00;100359.06;5014780;28;20531;-52
2023/09/29 05:27:33;;;;;;;0.40;0.20;;;;;;;17.00;100.00;100361.91;5014636;28;20516;-52
2023/09/29 05:30:00;;;;;;;0.40;0.20;;;;;;;17.10;100.00;100364.00;5007761;28;20897;-52
2023/09/29 05:32:26;;;;;;;0.40;0.20;;;;;;;17.11;100.00;100367.56;5008674;28;20449;-52
2023/09/29 05:34:56;;;;;;;0.40;0.20;;;;;;;17.07;100.00;100368.69;5014789;28;20456;-52
2023/09/29 05:37:22;;;;;;;0.40;0.20;;;;;;;17.19;100.00;100370.69;5011519;28;20456;-53
2023/09/29 05:39:49;;;;;;;0.40;0.20;;;;;;;17.21;100.00;100376.84;5014640;28;20488;-53
2023/09/29 05:42:15;;;;;;;0.40;0.20;;;;;;;17.21;100.00;100376.84;5014743;28;20459;-53
2023/09/29 05:44:42;;;;;;;0.40;0.20;;;;;;;17.32;100.00;100369.06;5007375;28;20532;-52
2023/09/29 05:47:08;;;;;;;0.40;0.27;;;;;;;17.38;100.00;100371.41;4992247;28;20487;-52
2023/09/29 05:49:35;;;;;;;0.40;0.20;;;;;;;17.38;100.00;100383.97;5014519;28;20535;-52
2023/09/29 05:52:01;;;;;;;0.40;0.20;;;;;;;17.38;100.00;100386.66;5014437;28;20453;-51
2023/09/29 05:54:28;;;;;;;0.40;0.30;;;;;;;17.31;100.00;100379.91;4996983;28;20488;-52
2023/09/29 05:56:54;;;;;;;0.40;0.20;;;;;;;17.29;100.00;100376.44;5014022;28;20547;-52
2023/09/29 05:59:21;;;;;;;0.40;0.20;;;;;;;17.34;100.00;100375.22;5014268;28;20713;-52
2023/09/29 06:01:48;;;;;;;0.40;0.20;;;;;;;17.29;100.00;100366.56;5014076;28;20575;-52
2023/09/29 06:04:39;;;;;;;0.40;0.20;;;;;;;17.37;100.00;100361.63;5014259;28;20453;-52
2023/09/29 06:07:05;;;;;;;0.40;0.20;;;;;;;17.28;100.00;100362.16;5013468;28;20996;-51
2023/09/29 06:09:31;;;;;;;0.40;0.20;;;;;;;17.26;100.00;100363.16;4994469;28;20511;-52
2023/09/29 06:11:58;;;;;;;0.40;0.20;;;;;;;17.41;100.00;100370.41;5001002;28;20492;-52
2023/09/29 06:14:24;;;;;;;0.40;0.20;;;;;;;17.51;100.00;100379.66;5009081;28;20457;-52
2023/09/29 06:16:51;;;;;;;0.40;0.20;;;;;;;17.62;100.00;100395.19;5013885;28;20475;-52
2023/09/29 06:19:18;;;;;;;0.40;0.20;;;;;;;17.56;100.00;100398.25;5013860;28;20519;-51
2023/09/29 06:21:46;;;;;;;0.40;0.20;;;;;;;17.67;100.00;100404.72;5013776;28;20496;-52
2023/09/29 06:24:12;;;;;;;0.40;0.20;;;;;;;17.80;100.00;100401.38;5013550;28;21028;-52
2023/09/29 06:26:39;;;;;;;0.40;0.20;;;;;;;17.76;100.00;100400.69;5013307;28;20881;-52
2023/09/29 06:29:06;;;;;;;0.40;0.20;;;;;;;17.89;100.00;100398.19;5013488;28;20932;-52
2023/09/29 06:31:32;;;;;;;0.40;0.20;;;;;;;17.84;100.00;100398.47;5000442;28;20438;-52
2023/09/29 06:33:59;;;;;;;0.40;0.20;;;;;;;17.91;100.00;100401.66;5015388;28;20459;-52
2023/09/29 06:36:26;;;;;;;0.40;0.20;;;;;;;17.98;100.00;100406.59;5014241;28;20564;-52
2023/09/29 06:38:53;;;;;;;0.40;0.20;;;;;;;18.04;100.00;100402.69;5010340;28;20452;-52
2023/09/29 06:41:19;;;;;;;1.30;1.30;;;;;;;18.25;100.00;100414.03;5013443;28;20496;-51
2023/09/29 06:43:47;;;;;;;0.40;0.20;;;;;;;18.30;100.00;100410.13;5013464;28;20453;-51
2023/09/29 06:46:13;;;;;;;0.40;0.20;;;;;;;18.29;100.00;100402.13;5000921;28;20474;-51
2023/09/29 06:48:39;;;;;;;0.40;0.20;;;;;;;18.33;100.00;100409.06;5013302;28;20498;-52
2023/09/29 06:51:07;;;;;;;0.40;0.20;;;;;;;18.34;100.00;100400.88;5013379;28;20445;-52
2023/09/29 06:53:34;;;;;;;0.40;0.20;;;;;;;18.34;100.00;100390.13;5013046;28;20433;-52
2023/09/29 06:56:00;;;;;;;0.40;0.20;;;;;;;18.30;100.00;100396.66;5013279;28;20480;-52
2023/09/29 06:58:27;;;;;;;0.40;0.20;;;;;;;18.48;100.00;100394.69;5012980;28;20453;-52
2023/09/29 07:00:55;;;;;;;0.40;0.20;;;;;;;18.39;100.00;100389.88;5012982;28;20897;-52
2023/09/29 07:03:26;;;;;;;0.40;0.20;;;;;;;18.47;100.00;100384.88;5013337;28;20891;-51
2023/09/29 07:05:53;;;;;;;0.40;0.20;;;;;;;18.44;100.00;100381.50;5013047;28;20551;-52
2023/09/29 07:08:19;;;;;;;0.40;0.30;;;;;;;18.53;100.00;100379.16;5003163;28;20450;-51
2023/09/29 07:10:46;;;;;;;0.40;0.20;;;;;;;18.57;100.00;100380.69;5002311;28;20455;-52
2023/09/29 07:13:12;;;;;;;0.40;0.20;;;;;;;18.66;100.00;100375.75;5012610;28;20452;-52
2023/09/29 07:15:39;;;;;;;0.40;0.20;;;;;;;18.79;100.00;100383.00;4989376;28;20456;-52
2023/09/29 07:18:10;;;;;;;0.40;0.20;;;;;;;18.86;100.00;100383.47;5012775;28;20541;-52
2023/09/29 07:20:38;;;;;;;0.40;0.20;;;;;;;18.99;100.00;100395.22;5012795;28;20492;-51
2023/09/29 07:23:05;;;;;;;0.40;0.20;;;;;;;19.24;100.00;100391.88;5012815;28;20479;-51
2023/09/29 07:25:31;;;;;;;0.40;0.20;;;;;;;19.52;100.00;100385.59;5012870;28;20457;-51
2023/09/29 07:27:57;;;;;;;0.40;0.20;;;;;;;19.28;100.00;100370.97;5012529;28;20472;-52
2023/09/29 07:30:24;;;;;;;0.40;0.20;;;;;;;19.24;100.00;100355.00;5002496;28;20449;-52
2023/09/29 07:32:50;;;;;;;0.40;0.20;;;;;;;19.17;100.00;100350.94;5010045;28;20498;-52
2023/09/29 07:35:18;;;;;;;0.40;0.20;;;;;;;19.19;100.00;100359.84;5012500;28;20459;-52
2023/09/29 07:37:45;;;;;;;0.40;0.20;;;;;;;19.58;100.00;100357.38;5009486;28;20524;-52
2023/09/29 07:40:13;;;;;;;0.50;0.20;;;;;;;19.70;100.00;100370.09;5012464;28;21173;-52
2023/09/29 07:42:39;;;;;;;0.40;0.20;;;;;;;20.11;98.13;100370.91;5012560;28;20422;-52
2023/09/29 07:45:07;;;;;;;0.40;0.20;;;;;;;20.16;98.45;100384.13;5002141;28;20477;-52
2023/09/29 07:47:33;;;;;;;0.50;0.30;;;;;;;20.16;98.21;100385.97;4993240;28;20453;-52
2023/09/29 07:50:00;;;;;;;0.40;0.20;;;;;;;20.39;97.22;100378.03;5012352;28;20427;-53
2023/09/29 07:52:28;;;;;;;0.40;0.20;;;;;;;20.41;96.98;100378.81;5012496;28;20527;-51
2023/09/29 07:54:55;;;;;;;0.40;0.20;;;;;;;20.02;97.83;100381.47;5012220;28;20920;-51
2023/09/29 07:57:22;;;;;;;0.40;0.20;;;;;;;19.87;98.63;100379.75;5012035;28;21004;-51
2023/09/29 07:59:49;;;;;;;0.40;0.20;;;;;;;20.19;98.01;100388.44;5012372;28;20514;-51
2023/09/29 08:02:15;;;;;;;0.40;0.20;;;;;;;20.18;98.09;100398.38;5011917;28;20980;-51
2023/09/29 08:04:41;;;;;;;0.40;0.20;;;;;;;20.24;97.56;100397.09;5012440;28;20514;-51
2023/09/29 08:07:08;;;;;;;0.40;0.20;;;;;;;20.21;97.91;100400.88;5011354;28;20527;-51
2023/09/29 08:09:34;;;;;;;0.40;0.20;;;;;;;20.64;96.00;100403.41;4992701;28;20523;-51
2023/09/29 08:12:01;;;;;;;0.40;0.20;;;;;;;20.59;95.98;100397.47;5011712;28;20420;-51
2023/09/29 08:14:27;;;;;;;0.40;0.20;;;;;;;20.73;95.43;100402.78;5006938;28;20446;-51
2023/09/29 08:16:54;;;;;;;0.40;0.20;;;;;;;20.65;96.03;100397.03;5011512;28;20464;-51
2023/09/29 08:19:20;;;;;;;0.40;0.20;;;;;;;20.86;95.65;100398.25;5012520;28;20427;-51
2023/09/29 08:21:48;;;;;;;0.40;0.20;;;;;;;20.72;96.38;100405.59;5012064;28;20538;-51
2023/09/29 08:24:14;;;;;;;1.07;1.07;;;;;;;20.60;96.57;100400.06;5012233;28;20453;-51
2023/09/29 08:26:41;;;;;;;0.40;0.20;;;;;;;20.64;96.33;100403.41;5014438;28;20473;-51
2023/09/29 08:29:15;;;;;;;0.40;0.20;;;;;;;20.99;95.21;100401.84;5016061;28;20456;-51
2023/09/29 08:31:43;;;;;;;0.40;0.20;;;;;;;20.89;95.39;100391.75;5004071;28;20519;-51
2023/09/29 08:34:09;;;;;;;0.40;0.20;;;;;;;21.09;94.04;100396.63;5015736;28;20514;-51
2023/09/29 08:36:36;;;;;;;0.40;0.20;;;;;;;21.11;93.83;100397.41;5015959;28;20500;-51
2023/09/29 08:39:03;;;;;;;0.40;0.20;;;;;;;20.89;94.65;100394.47;5012698;28;20526;-51
2023/09/29 08:41:32;;;;;;;0.40;0.20;;;;;;;21.00;94.21;100389.19;5015615;28;20467;-51
2023/09/29 08:44:01;;;;;;;0.40;0.20;;;;;;;21.02;94.72;100389.06;5014151;28;20452;-51
2023/09/29 08:46:35;;;;;;;0.40;0.20;;;;;;;21.18;94.44;100392.41;5005848;28;20438;-51
2023/09/29 08:49:03;;;;;;;0.40;0.20;;;;;;;21.28;94.33;100386.28;5015601;28;20423;-51
2023/09/29 08:51:32;;;;;;;0.40;0.20;;;;;;;21.23;93.58;100383.00;5015582;28;20506;-51
2023/09/29 08:54:02;;;;;;;0.40;0.20;;;;;;;21.39;93.72;100381.97;5015435;28;20509;-51
2023/09/29 08:56:30;;;;;;;0.40;0.20;;;;;;;21.70;91.99;100386.00;5015229;28;20955;-51
2023/09/29 08:59:01;;;;;;;0.47;0.20;;;;;;;21.71;92.55;100380.47;5015503;28;20498;-51
2023/09/29 09:01:30;;;;;;;0.40;0.20;;;;;;;22.36;90.77;100373.84;5015478;28;20491;-51
2023/09/29 09:03:56;;;;;;;0.40;0.20;;;;;;;22.62;89.18;100379.97;4989286;28;20916;-51
2023/09/29 09:06:25;;;;;;;0.40;0.20;;;;;;;22.38;89.36;100374.59;5015158;28;20454;-51
2023/09/29 09:08:53;;;;;;;0.40;0.20;;;;;;;22.39;89.12;100374.47;5000794;28;20453;-52
2023/09/29 09:11:20;;;;;;;0.40;0.20;;;;;;;22.57;89.28;100372.19;5009086;28;20420;-51
2023/09/29 09:14:03;;;;;;;0.40;0.20;;;;;;;22.88;89.02;100372.53;5015045;28;20539;-51
2023/09/29 09:16:31;;;;;;;0.40;0.20;;;;;;;22.87;86.62;100373.53;4990094;28;20505;-51
2023/09/29 09:19:11;;;;;;;0.50;0.20;;;;;;;22.96;86.70;100364.66;5015121;28;20452;-51
2023/09/29 09:21:38;;;;;;;0.50;0.20;;;;;;;23.07;87.31;100380.09;5014653;28;20495;-51
2023/09/29 09:24:19;;;;;;;0.50;0.20;;;;;;;23.17;86.34;100372.97;5015077;28;20502;-51
2023/09/29 09:26:46;;;;;;;0.50;0.23;;;;;;;22.96;87.15;100367.38;5014910;28;20443;-51
2023/09/29 09:29:17;;;;;;;0.40;0.30;;;;;;;23.14;85.84;100368.63;5013926;28;20437;-51
2023/09/29 09:31:45;;;;;;;0.50;0.20;;;;;;;23.43;85.44;100365.41;5003672;28;20501;-51
2023/09/29 09:34:15;;;;;;;0.40;0.20;;;;;;;23.79;84.97;100367.88;5014987;28;20823;-51
2023/09/29 09:36:52;;;;;;;0.50;0.20;;;;;;;23.69;84.41;100366.06;5014619;28;20474;-51
2023/09/29 09:39:22;;;;;;;0.50;0.20;;;;;;;23.62;83.68;100366.56;5008689;28;20441;-52
2023/09/29 09:41:53;;;;;;;0.50;0.20;;;;;;;23.69;83.68;100364.19;5014815;28;20466;-52
2023/09/29 09:44:21;;;;;;;0.50;0.30;;;;;;;23.94;83.45;100363.91;5010252;28;20459;-52
2023/09/29 09:46:53;;;;;;;0.50;0.40;;;;;;;23.76;84.21;100370.88;5007014;28;20531;-52
2023/09/29 09:49:30;;;;;;;0.50;0.30;;;;;;;24.06;83.73;100369.31;5014632;28;20503;-52
2023/09/29 09:52:04;;;;;;;0.50;0.20;;;;;;;24.49;81.78;100370.16;5014489;28;20419;-52
2023/09/29 09:54:35;;;;;;;0.50;0.20;;;;;;;24.88;80.97;100377.72;5014462;28;20429;-52
2023/09/29 09:57:09;;;;;;;0.43;0.23;;;;;;;24.71;80.21;100376.47;5014139;28;20471;-52
2023/09/29 09:59:36;;;;;;;0.50;0.20;;;;;;;25.13;79.12;100380.06;5014314;28;20510;-53
2023/09/29 10:02:06;;;;;;;0.50;0.30;;;;;;;25.26;79.40;100386.16;5014115;28;20562;-52
2023/09/29 10:04:38;;;;;;;0.50;0.50;;;;;;;25.53;78.53;100391.00;5014105;28;20427;-52
2023/09/29 10:07:05;;;;;;;0.47;0.20;;;;;;;25.48;77.69;100382.38;5013878;28;21035;-52
2023/09/29 10:09:46;;;;;;;0.50;0.20;;;;;;;25.68;77.03;100380.59;4987055;28;20949;-52
2023/09/29 10:12:27;;;;;;;0.50;0.20;;;;;;;25.71;76.50;100372.19;4989742;28;20514;-52
2023/09/29 10:14:58;;;;;;;0.50;0.20;;;;;;;25.74;75.80;100363.72;5008218;28;20894;-52
2023/09/29 10:17:39;;;;;;;0.50;0.30;;;;;;;25.91;74.93;100359.47;5014060;28;20466;-52
2023/09/29 10:20:29;;;;;;;0.50;0.30;;;;;;;25.79;74.44;100355.16;5014371;28;20540;-51
2023/09/29 10:23:13;;;;;;;0.50;0.20;;;;;;;26.27;73.05;100358.78;5013823;28;20488;-52
2023/09/29 10:25:45;;;;;;;0.50;0.30;;;;;;;26.15;72.53;100357.19;5013689;28;20495;-53
2023/09/29 10:28:12;;;;;;;0.50;0.30;;;;;;;26.52;72.03;100348.34;5013566;28;20444;-53
2023/09/29 10:30:40;;;;;;;0.50;0.30;;;;;;;26.70;71.60;100359.38;5001566;28;20473;-53
2023/09/29 10:33:11;;;;;;;0.50;0.23;;;;;;;26.41;71.27;100353.94;5013090;28;20476;-53
2023/09/29 10:35:44;;;;;;;0.50;0.20;;;;;;;26.69;70.89;100363.97;5013460;28;20476;-53
2023/09/29 10:38:29;;;;;;;0.50;0.30;;;;;;;26.60;70.38;100362.13;5010419;28;20507;-53
2023/09/29 10:40:58;;;;;;;0.50;0.20;;;;;;;26.74;71.48;100363.56;5013551;28;20535;-52
2023/09/29 10:43:24;;;;;;;0.50;0.30;;;;;;;26.72;70.78;100366.41;5013632;28;20540;-53
2023/09/29 10:45:51;;;;;;;0.50;0.30;;;;;;;26.99;70.57;100370.22;5000667;28;20559;-53
2023/09/29 10:48:22;;;;;;;0.50;0.20;;;;;;;26.82;70.10;100371.84;5012689;28;20453;-53
2023/09/29 10:50:50;;;;;;;0.50;0.30;;;;;;;26.82;69.68;100374.56;5013324;28;20548;-53
2023/09/29 10:53:22;;;;;;;0.50;0.20;;;;;;;26.67;71.03;100376.91;5013223;28;20602;-53
2023/09/29 10:55:50;;;;;;;0.50;0.20;;;;;;;26.78;69.90;100371.28;5013192;28;20449;-53
2023/09/29 10:58:18;;;;;;;0.50;0.30;;;;;;;26.55;70.30;100373.47;5013324;28;20452;-53
2023/09/29 11:00:50;;;;;;;0.50;0.30;;;;;;;26.63;70.41;100380.06;4987185;28;20442;-53
2023/09/29 11:03:20;;;;;;;0.50;0.30;;;;;;;26.37;70.56;100377.91;5013037;28;20422;-53
2023/09/29 11:05:55;;;;;;;0.50;0.20;;;;;;;26.51;69.83;100377.47;5012905;28;20488;-54
2023/09/29 11:08:29;;;;;;;0.50;0.20;;;;;;;26.35;70.75;100374.44;5002499;28;20897;-53
2023/09/29 11:11:06;;;;;;;0.50;0.23;;;;;;;26.20;71.35;100371.28;5003752;28;20509;-52
2023/09/29 11:13:33;;;;;;;0.50;0.30;;;;;;;25.95;70.89;100363.63;5012981;28;20539;-52
2023/09/29 11:16:00;;;;;;;0.50;0.20;;;;;;;25.99;71.40;100371.38;5001200;28;20488;-52
2023/09/29 11:18:30;;;;;;;0.50;0.20;;;;;;;26.03;71.02;100369.22;5000636;28;20460;-52
2023/09/29 11:20:59;;;;;;;0.50;0.20;;;;;;;26.14;71.51;100377.28;5012982;28;20427;-52
2023/09/29 11:23:28;;;;;;;0.50;0.20;;;;;;;26.33;71.34;100386.50;5012670;28;20485;-52
2023/09/29 11:25:59;;;;;;;0.50;0.30;;;;;;;26.34;69.91;100388.22;5012570;28;20492;-52